Latest Weather Observations for Mount Magnet Airport

IDW60801

Issued at 3:43 am WST Tuesday 7 December 2021 (issued every 10 minutes, with the page automatically refreshed every 10 minutes)

About weather observations | Map of weather stations | Latest weather observations for WA | Other Formats
Station Details ID: 007600 Name: MOUNT MAGNET AERO Lat: -28.12 Lon: 117.84 Height: 407.0 m
Data from the previous 72 hours. | See also: Recent months at Mount Magnet Airport
Date/Time
WST
Temp
°C
App
Temp
°C
Dew
Point
°C
Rel
Hum
%
Delta-T
°C
Wind Press
QNH
hPa
Press
MSL
hPa
Rain since
9am
mm
Dir  Spd
km/h
Gust
km/h
Spd
kts
Gust
kts
07/03:30am 26.3 22.7 10.5 37 9.0 ENE 20 28 11 15 1009.6 1006.7 0.0
07/03:00am 26.5 22.8 10.2 36 9.3 ENE 20 28 11 15 1009.7 1006.8 0.0
07/02:30am 26.8 23.4 10.5 36 9.3 ENE 19 26 10 14 1009.7 1006.8 0.0
07/02:00am 27.0 23.5 10.2 35 9.6 ENE 19 24 10 13 1009.9 1007.0 0.0
07/01:30am 27.5 23.4 10.2 34 9.9 ENE 22 30 12 16 1010.0 1007.1 0.0
07/01:00am 27.8 24.1 10.1 33 10.1 ENE 20 30 11 16 1010.1 1007.2 0.0
07/12:30am 28.3 23.4 10.0 32 10.4 ENE 26 37 14 20 1010.0 1007.1 0.0
07/12:00am 28.5 24.7 9.7 31 10.7 ENE 20 28 11 15 1009.8 1006.9 0.0
 
Date/Time
WST
Temp
°C
App
Temp
°C
Dew
Point
°C
Rel
Hum
%
Delta-T
°C
Wind Press
QNH
hPa
Press
MSL
hPa
Rain since
9am
mm
Dir  Spd
km/h
Gust
km/h
Spd
kts
Gust
kts
06/11:30pm 28.5 25.2 9.7 31 10.7 E 17 24 9 13 1009.7 1006.8 0.0
06/11:00pm 29.0 25.7 9.7 30 11.0 E 17 22 9 12 1009.8 1006.9 0.0
06/10:30pm 29.0 26.3 10.2 31 10.8 E 15 19 8 10 1009.9 1007.0 0.0
06/10:00pm 29.3 27.2 9.9 30 11.1 ESE 11 15 6 8 1009.6 1006.7 0.0
06/09:30pm 29.7 27.1 9.3 28 11.6 E 13 19 7 10 1009.2 1006.3 0.0
06/09:00pm 30.1 26.8 9.6 28 11.7 ESE 17 20 9 11 1008.6 1005.7 0.0
06/08:30pm 30.4 27.2 9.8 28 11.8 E 17 24 9 13 1009.0 1006.1 0.0
06/08:00pm 30.8 27.1 9.6 27 12.2 ENE 19 28 10 15 1008.6 1005.7 0.0
06/07:30pm 31.5 27.4 8.5 24 13.0 E 20 30 11 16 1008.2 1005.3 0.0
06/07:00pm 32.1 27.2 8.4 23 13.5 E 24 32 13 17 1007.7 1004.8 0.0
06/06:30pm 33.1 28.8 7.9 21 14.2 ESE 20 32 11 17 1007.5 1004.6 0.0
06/06:10pm 33.1 27.7 7.9 21 14.2 SE 26 37 14 20 1007.2 1004.3 0.0
06/06:00pm 32.9 25.0 7.7 21 14.2 SSE 39 56 21 30 1006.9 1004.0 0.0
06/05:53pm 33.0 25.1 7.8 21 14.2 SSE 39 56 21 30 1006.6 1003.6 0.0
06/05:35pm 32.4 24.8 9.2 24 13.3 S 39 61 21 33 1006.8 1003.9 0.0
06/05:30pm 32.4 25.4 9.9 25 13.1 SSW 37 52 20 28 1006.9 1004.0 0.0
06/05:25pm 32.9 27.8 7.7 21 14.2 SW 24 48 13 26 1007.2 1004.3 0.0
06/05:10pm 32.2 27.8 10.3 26 12.8 WNW 24 43 13 23 1009.0 1006.1 0.0
06/05:00pm 33.7 29.1 8.3 21 14.5 WNW 22 41 12 22 1008.5 1005.6 0.0
06/04:50pm 35.2 31.0 7.3 18 15.8 NNE 19 44 10 24 1007.7 1004.8 0.0
06/04:30pm 38.0 33.2 2.5 11 18.9 SE 17 24 9 13 1006.4 1003.4 0.0
06/04:22pm 37.6 31.8 2.1 11 18.7 SE 22 32 12 17 1005.8 1002.9 0.0
06/04:20pm 37.7 31.5 2.2 11 18.8 SE 24 35 13 19 1005.8 1002.9 0.0
06/04:10pm 37.5 32.1 6.5 15 17.5 SSE 24 33 13 18 1005.5 1002.6 0.0
06/04:00pm 38.8 31.6 3.1 11 19.3 SSE 30 41 16 22 1005.5 1002.6 0.0
06/03:37pm 38.7 31.6 1.6 10 19.5 SE 28 39 15 21 1005.8 1002.9 0.0
06/03:30pm 38.6 32.7 1.6 10 19.5 E 22 37 12 20 1005.8 1002.9 0.0
06/03:27pm 38.7 32.8 1.6 10 19.5 ESE 22 35 12 19 1005.9 1003.0 0.0
06/03:20pm 38.9 33.0 1.8 10 19.6 SE 22 35 12 19 1005.9 1003.0 0.0
06/03:05pm 39.0 35.2 1.9 10 19.7 E 11 26 6 14 1005.9 1003.0 0.0
06/03:00pm 39.0 35.6 1.9 10 19.7 E 9 17 5 9 1006.0 1003.1 0.0
06/02:30pm 38.9 33.4 1.8 10 19.6 E 20 30 11 16 1006.7 1003.8 0.0
06/02:00pm 39.0 34.5 1.9 10 19.7 SE 15 24 8 13 1007.0 1004.1 0.0
06/01:42pm 39.5 32.9 2.2 10 19.9 E 26 48 14 26 1007.2 1004.3 0.0
06/01:30pm 39.9 35.8 2.5 10 20.1 NNE 13 24 7 13 1007.3 1004.4 0.0
06/01:00pm 39.8 35.4 2.5 10 20.1 ENE 15 26 8 14 1007.7 1004.8 0.0
06/12:30pm 38.9 34.9 3.1 11 19.3 E 13 24 7 13 1008.1 1005.2 0.0
06/12:00pm 38.7 33.6 4.2 12 18.9 E 20 35 11 19 1008.3 1005.4 0.0
06/11:30am 37.7 33.3 4.6 13 18.2 NE 17 28 9 15 1008.8 1005.8 0.0
06/11:00am 37.7 32.3 4.6 13 18.2 NE 22 35 12 19 1009.2 1006.3 0.0
06/10:30am 37.6 31.6 3.4 12 18.4 ENE 24 35 13 19 1009.4 1006.5 0.0
06/10:00am 36.0 29.6 3.3 13 17.5 ENE 26 35 14 19 1009.8 1006.9 0.0
06/09:30am 35.4 29.5 3.9 14 16.9 ENE 24 35 13 19 1009.9 1007.0 0.0
06/09:00am 34.1 27.8 3.8 15 16.1 NE 26 35 14 19 1010.3 1007.4 0.0
06/08:30am 32.7 26.5 4.5 17 15.0 ENE 26 39 14 21 1010.5 1007.6 0.0
06/08:00am 31.8 26.0 4.6 18 14.5 E 24 35 13 19 1010.7 1007.8 0.0
06/07:30am 30.7 24.1 4.4 19 13.9 E 28 37 15 20 1010.7 1007.8 0.0
06/07:00am 29.6 23.5 5.0 21 13.0 E 26 35 14 19 1010.5 1007.6 0.0
06/06:30am 28.7 23.4 4.9 22 12.5 ESE 22 30 12 16 1010.5 1007.6 0.0
06/06:00am 28.0 23.3 5.0 23 12.1 ESE 19 32 10 17 1010.4 1007.5 0.0
06/05:30am 27.2 23.6 4.9 24 11.6 ESE 13 19 7 10 1010.3 1007.4 0.0
06/05:00am 26.8 23.2 5.1 25 11.3 ESE 13 15 7 8 1010.0 1007.1 0.0
06/04:30am 27.0 23.5 5.3 25 11.4 ESE 13 15 7 8 1009.7 1006.8 0.0
06/04:00am 27.3 23.8 5.6 25 11.5 ESE 13 17 7 9 1009.5 1006.6 0.0
06/03:30am 27.7 23.8 5.3 24 11.8 SE 15 20 8 11 1009.2 1006.3 0.0
06/03:00am 27.9 24.0 5.5 24 11.9 SE 15 20 8 11 1009.0 1006.1 0.0
06/02:30am 28.3 24.1 5.8 24 12.0 SE 17 22 9 12 1008.8 1005.8 0.0
06/02:00am 28.9 25.1 5.7 23 12.4 SE 15 20 8 11 1008.8 1005.8 0.0
06/01:30am 29.5 25.3 5.6 22 12.8 SSE 17 20 9 11 1008.6 1005.7 0.0
06/01:00am 30.2 25.8 4.8 20 13.5 SSE 17 22 9 12 1008.6 1005.7 0.0
06/12:30am 30.8 25.8 4.5 19 13.9 SSE 20 28 11 15 1008.8 1005.8 0.0
06/12:00am 31.4 26.9 4.2 18 14.4 SE 17 22 9 12 1008.8 1005.8 0.0
 
Date/Time
WST
Temp
°C
App
Temp
°C
Dew
Point
°C
Rel
Hum
%
Delta-T
°C
Wind Press
QNH
hPa
Press
MSL
hPa
Rain since
9am
mm
Dir  Spd
km/h
Gust
km/h
Spd
kts
Gust
kts
05/11:30pm 31.7 26.7 3.7 17 14.7 S 19 26 10 14 1008.9 1006.0 0.0
05/11:00pm 32.3 28.6 4.2 17 14.9 SE 13 15 7 8 1008.9 1006.0 0.0
05/10:30pm 32.7 28.1 3.6 16 15.3 SE 17 20 9 11 1009.0 1006.1 0.0
05/10:00pm 33.2 29.2 3.1 15 15.8 SSE 13 17 7 9 1009.0 1006.1 0.0
05/09:30pm 33.7 29.6 2.5 14 16.2 S 13 15 7 8 1009.0 1006.1 0.0
05/09:00pm 33.8 30.1 2.6 14 16.3 SSW 11 15 6 8 1008.9 1006.0 0.0
05/08:30pm 34.8 30.7 2.3 13 16.9 SE 13 15 7 8 1008.5 1005.6 0.0
05/08:00pm 35.8 31.7 2.0 12 17.7 SSE 13 15 7 8 1008.4 1005.5 0.0
05/07:30pm 36.6 32.2 2.6 12 18.0 S 15 19 8 10 1008.1 1005.2 0.0
05/07:00pm 37.2 31.5 3.1 12 18.3 S 22 30 12 16 1007.9 1005.0 0.0
05/06:30pm 37.9 33.8 2.4 11 18.9 SW 13 22 7 12 1007.7 1004.8 0.0
05/06:00pm 37.9 33.1 2.4 11 18.9 SW 17 22 9 12 1007.4 1004.5 0.0
05/05:30pm 38.4 34.4 2.8 11 19.1 SW 13 19 7 10 1007.3 1004.4 0.0
05/05:00pm 38.8 34.5 3.1 11 19.3 SW 15 20 8 11 1007.3 1004.4 0.0
05/04:30pm 39.0 35.4 3.2 11 19.4 NE 11 17 6 9 1007.4 1004.5 0.0
05/04:00pm 37.7 35.2 4.6 13 18.2 SSE 7 11 4 6 1007.7 1004.8 0.0
05/03:30pm 38.0 34.4 4.8 13 18.3 S 13 22 7 12 1007.9 1005.0 0.0
05/03:00pm 38.5 35.2 6.3 14 18.2 ENE 13 19 7 10 1008.2 1005.3 0.0
05/02:30pm 37.9 35.1 6.8 15 17.7 SSE 11 24 6 13 1008.8 1005.8 0.0
05/02:00pm 37.2 34.1 7.2 16 17.1 ENE 13 19 7 10 1009.3 1006.4 0.0
05/01:30pm 36.8 33.1 7.8 17 16.6 S 17 24 9 13 1009.7 1006.8 0.0
05/01:00pm 37.4 34.5 8.2 17 16.9 E 13 24 7 13 1010.2 1007.3 0.0
05/12:30pm 37.3 34.6 9.0 18 16.6 E 13 26 7 14 1010.5 1007.6 0.0
05/12:00pm 35.5 32.8 9.1 20 15.4 ENE 13 30 7 16 1010.9 1008.0 0.0
05/11:30am 35.4 32.3 9.0 20 15.3 NE 15 22 8 12 1011.5 1008.6 0.0
05/11:00am 35.7 32.3 9.3 20 15.4 NNE 17 32 9 17 1011.9 1009.0 0.0
05/10:30am 33.8 30.2 9.8 23 14.0 ENE 19 26 10 14 1012.3 1009.4 0.0
05/10:00am 33.5 30.2 9.5 23 13.9 NNE 17 26 9 14 1012.7 1009.8 0.0
05/09:30am 32.7 29.0 10.1 25 13.2 ENE 20 28 11 15 1013.1 1010.2 0.0
05/09:00am 31.7 27.3 10.4 27 12.4 NE 24 32 13 17 1013.2 1010.3 0.0
05/08:30am 31.2 26.8 10.5 28 12.1 NE 24 33 13 18 1013.4 1010.6 0.0
05/08:00am 30.5 26.9 10.5 29 11.6 NE 20 26 11 14 1013.4 1010.6 0.0
05/07:30am 29.2 25.7 10.8 32 10.7 ENE 20 26 11 14 1013.5 1010.7 0.0
05/07:00am 28.1 25.0 10.3 33 10.2 ENE 17 20 9 11 1013.4 1010.6 0.0
05/06:30am 27.1 23.8 9.5 33 9.9 E 17 20 9 11 1013.3 1010.5 0.0
05/06:00am 25.8 23.1 8.8 34 9.4 E 13 20 7 11 1013.2 1010.3 0.0
05/05:30am 24.4 21.5 8.0 35 8.9 E 13 17 7 9 1012.9 1010.0 0.0
05/05:00am 23.6 21.3 7.3 35 8.7 ESE 9 11 5 6 1012.7 1009.8 0.0
05/04:30am 23.5 21.1 7.2 35 8.6 ESE 9 11 5 6 1012.3 1009.4 0.0
05/04:00am 24.0 21.5 6.7 33 9.1 ESE 9 11 5 6 1012.1 1009.2 0.0
05/03:30am 24.5 22.0 6.7 32 9.4 ESE 9 11 5 6 1011.9 1009.0 0.0
05/03:00am 24.8 22.3 6.5 31 9.7 SE 9 11 5 6 1011.8 1008.9 0.0
05/02:30am 25.4 22.9 6.6 30 10.0 SSE 9 9 5 5 1011.8 1008.9 0.0
05/02:00am 25.8 23.6 6.4 29 10.3 S 7 9 4 5 1011.8 1008.9 0.0
05/01:30am 26.3 23.8 6.4 28 10.6 SSE 9 11 5 6 1011.9 1009.0 0.0
05/01:00am 27.0 24.1 6.4 27 11.0 SE 11 13 6 7 1012.0 1009.1 0.0
05/12:30am 27.5 24.6 6.3 26 11.3 S 11 11 6 6 1012.2 1009.3 0.0
05/12:00am 28.2 24.9 6.3 25 11.8 SSE 13 17 7 9 1012.2 1009.3 0.0
 
Date/Time
WST
Temp
°C
App
Temp
°C
Dew
Point
°C
Rel
Hum
%
Delta-T
°C
Wind Press
QNH
hPa
Press
MSL
hPa
Rain since
9am
mm
Dir  Spd
km/h
Gust
km/h
Spd
kts
Gust
kts
04/11:30pm 28.8 26.6 6.2 24 12.1 S 7 9 4 5 1012.4 1009.5 0.0
04/11:00pm 30.0 26.6 6.0 22 12.9 S 13 17 7 9 1012.5 1009.6 0.0
04/10:30pm 30.9 26.8 6.0 21 13.5 E 17 24 9 13 1012.4 1009.5 0.0
04/10:00pm 30.8 26.7 6.0 21 13.4 ESE 17 22 9 12 1012.5 1009.6 0.0
04/09:30pm 31.1 27.2 5.5 20 13.8 ESE 15 20 8 11 1012.4 1009.5 0.0
04/09:00pm 31.4 27.8 5.0 19 14.1 ESE 13 17 7 9 1012.1 1009.2 0.0
04/08:30pm 32.3 28.7 5.0 18 14.7 ESE 13 15 7 8 1012.0 1009.1 0.0
04/08:00pm 33.0 29.7 4.7 17 15.2 ESE 11 15 6 8 1011.8 1008.9 0.0
04/07:30pm 34.0 29.9 4.6 16 15.8 ESE 15 20 8 11 1011.8 1008.9 0.0
04/07:00pm 34.5 30.7 4.1 15 16.3 ESE 13 17 7 9 1011.5 1008.6 0.0
04/06:30pm 35.4 31.2 3.9 14 16.9 ESE 15 20 8 11 1011.1 1008.3 0.0
04/06:00pm 35.7 31.6 4.1 14 17.0 E 15 20 8 11 1011.0 1008.2 0.0
04/05:30pm 36.2 32.1 4.5 14 17.2 ESE 15 22 8 12 1010.8 1007.9 0.0
04/05:00pm 36.2 31.4 4.5 14 17.3 E 19 35 10 19 1010.7 1007.8 0.0
04/04:30pm 36.9 32.4 4.0 13 17.8 SSE 17 28 9 15 1010.8 1007.9 0.0
04/04:00pm 35.9 32.9 4.2 14 17.1 SSE 9 17 5 9 1010.9 1008.0 0.0
04/03:30pm 36.5 31.7 4.7 14 17.4 ESE 19 30 10 16 1011.0 1008.2 0.0
04/03:00pm 35.5 31.7 5.8 16 16.4 SE 15 24 8 13 1011.4 1008.5 0.0
04/02:30pm 35.4 30.8 5.8 16 16.4 ESE 19 30 10 16 1011.7 1008.8 0.0
04/02:00pm 35.0 31.3 6.3 17 16.0 ESE 15 30 8 16 1012.2 1009.3 0.0
04/01:30pm 34.6 30.1 6.0 17 15.8 S 19 33 10 18 1012.5 1009.6 0.0
04/01:00pm 34.9 29.8 6.2 17 15.9 ESE 22 32 12 17 1013.0 1010.1 0.0
04/12:30pm 33.9 29.4 7.0 19 15.0 ESE 20 35 11 19 1013.5 1010.7 0.0
04/12:00pm 32.8 28.5 6.9 20 14.4 ESE 19 32 10 17 1014.1 1011.2 0.0
04/11:30am 32.3 28.8 7.2 21 14.0 SE 15 28 8 15 1014.6 1011.7 0.0
04/11:00am 31.6 26.8 7.3 22 13.5 SSE 22 32 12 17 1015.1 1012.2 0.0
04/10:30am 29.8 24.9 7.1 24 12.4 SE 22 37 12 20 1015.6 1012.8 0.0
04/10:00am 29.6 24.5 7.5 25 12.2 SE 24 35 13 19 1016.0 1013.2 0.0
04/09:30am 28.2 22.5 6.9 26 11.5 ESE 26 35 14 19 1016.2 1013.4 0.0
04/09:00am 27.4 21.7 6.8 27 11.1 ESE 26 37 14 20 1016.7 1013.8 0.0
04/08:30am 26.4 19.4 5.9 27 10.8 ESE 32 41 17 22 1016.9 1014.0 0.0
04/08:00am 25.5 19.3 6.2 29 10.2 ESE 28 37 15 20 1017.1 1014.2 0.0
04/07:30am 24.8 18.2 6.1 30 9.8 ESE 30 41 16 22 1017.0 1014.1 0.0
04/07:00am 23.8 17.6 6.1 32 9.2 ESE 28 35 15 19 1016.6 1013.7 0.0
04/06:30am 22.8 17.3 6.1 34 8.6 SE 24 32 13 17 1016.2 1013.4 0.0
04/06:00am 22.1 17.5 6.3 36 8.2 SE 20 28 11 15 1016.0 1013.2 0.0
04/05:30am 21.3 17.6 6.4 38 7.7 SE 15 20 8 11 1015.6 1012.8 0.0
04/05:00am 20.7 17.8 6.6 40 7.3 SSE 11 17 6 9 1015.4 1012.5 0.0
04/04:30am 21.0 18.5 6.5 39 7.5 SSE 9 13 5 7 1015.0 1012.1 0.0
04/04:00am 21.7 18.5 6.8 38 7.8 SSE 13 15 7 8 1014.6 1011.7 0.0

Other formats

Comma delimited format used in spreadsheet applications
http://www.bom.gov.au/fwo/IDW60801/IDW60801.94429.axf

JavaScript Object Notation format (JSON) in row-major order
http://www.bom.gov.au/fwo/IDW60801/IDW60801.94429.json

Data quality

Most of these data are generated automatically and are frequently updated. Quality checks on data are not normally performed. It is possible for incorrect values to appear. Refer to information at About Latest Weather Observations and please check the disclaimer before using these data.